Time;durP1;ratioP1;P1;durP2;ratioP2;P2;SDS_P1;SDS_P2;PMS_P1;PMS_P2;Temp;Humidity;BMP_temperature;BMP_pressure;BME280_temperature;BME280_humidity;BME280_pressure;Samples;Min_cycle;Max_cycle;Signal;HPM_P1;HPM_P2
2023/10/04 00:00:14;;;;;;;6.50;1.55;;;;;;;;;;4929599;28;93355;-84
2023/10/04 00:02:43;;;;;;;8.60;1.70;;;;;;;;;;4930019;28;92538;-84
2023/10/04 00:05:10;;;;;;;7.90;1.50;;;;;;;;;;4931292;28;92765;-82
2023/10/04 00:07:37;;;;;;;5.95;1.50;;;;;;;;;;4931193;28;98769;-82
2023/10/04 00:10:05;;;;;;;5.85;1.45;;;;;;;;;;4930741;28;93000;-82
2023/10/04 00:12:31;;;;;;;7.38;1.70;;;;;;;;;;4931575;28;92846;-83
2023/10/04 00:14:58;;;;;;;6.22;1.42;;;;;;;;;;4932074;28;92544;-84
2023/10/04 00:17:25;;;;;;;8.32;1.60;;;;;;;;;;4932559;28;92828;-84
2023/10/04 00:19:56;;;;;;;4.63;1.40;;;;;;;;;;4934459;28;92810;-84
2023/10/04 00:22:23;;;;;;;7.05;1.60;;;;;;;;;;4929660;28;95315;-81
2023/10/04 00:24:52;;;;;;;5.95;1.50;;;;;;;;;;4931210;28;95146;-82
2023/10/04 00:27:20;;;;;;;6.53;1.58;;;;;;;;;;4931175;28;93308;-82
2023/10/04 00:29:46;;;;;;;5.50;1.60;;;;;;;;;;4922146;28;92888;-83
2023/10/04 00:32:13;;;;;;;5.65;1.70;;;;;;;;;;4945538;28;94571;-82
2023/10/04 00:34:40;;;;;;;7.45;1.42;;;;;;;;;;4929683;28;95487;-83
2023/10/04 00:37:07;;;;;;;6.93;1.60;;;;;;;;;;4926434;28;93064;-83
2023/10/04 00:39:34;;;;;;;6.70;1.67;;;;;;;;;;4928714;28;96057;-82
2023/10/04 00:42:01;;;;;;;5.78;1.42;;;;;;;;;;4931135;28;92829;-83
2023/10/04 00:44:27;;;;;;;5.53;1.63;;;;;;;;;;4942321;28;92849;-82
2023/10/04 00:46:55;;;;;;;6.28;1.45;;;;;;;;;;4950347;28;95589;-82
2023/10/04 00:49:21;;;;;;;3.95;1.50;;;;;;;;;;4952592;28;92412;-83
2023/10/04 00:51:51;;;;;;;;;;;;;;;;;;4965837;28;95928;-82
2023/10/04 00:54:18;;;;;;;3.83;1.40;;;;;;;;;;4947567;28;93928;-83
2023/10/04 00:56:46;;;;;;;5.05;1.30;;;;;;;;;;4951078;28;93094;-83
2023/10/04 00:59:15;;;;;;;5.82;1.50;;;;;;;;;;4953473;28;94108;-83
2023/10/04 01:01:41;;;;;;;7.70;1.70;;;;;;;;;;4952865;28;93132;-82
2023/10/04 01:04:10;;;;;;;4.65;1.25;;;;;;;;;;4930043;28;96128;-82
2023/10/04 01:06:37;;;;;;;3.33;1.38;;;;;;;;;;4931128;28;93117;-82
2023/10/04 01:09:06;;;;;;;5.18;1.60;;;;;;;;;;4930876;28;92685;-82
2023/10/04 01:11:35;;;;;;;5.03;1.40;;;;;;;;;;4929875;28;95000;-83
2023/10/04 01:14:38;;;;;;;5.03;1.35;;;;;;;;;;4919948;28;93052;-82
2023/10/04 01:16:56;;;;;;;5.20;1.40;;;;;;;;;;4939056;28;92904;-83
2023/10/04 01:19:23;;;;;;;6.85;1.60;;;;;;;;;;4957609;28;92706;-84
2023/10/04 01:21:49;;;;;;;3.70;1.30;;;;;;;;;;4947994;28;94192;-84
2023/10/04 01:24:16;;;;;;;4.85;1.50;;;;;;;;;;4947321;28;93678;-84
2023/10/04 01:26:43;;;;;;;5.85;1.30;;;;;;;;;;4930844;28;93189;-84
2023/10/04 01:29:11;;;;;;;7.63;1.60;;;;;;;;;;4930326;28;92243;-84
2023/10/04 01:31:38;;;;;;;4.25;1.40;;;;;;;;;;4931054;28;92444;-84
2023/10/04 01:34:06;;;;;;;4.57;1.40;;;;;;;;;;4929874;28;93114;-84
2023/10/04 01:36:36;;;;;;;4.95;1.30;;;;;;;;;;4929236;28;95309;-84
2023/10/04 01:39:07;;;;;;;7.50;1.63;;;;;;;;;;4930821;28;95223;-84
2023/10/04 01:41:37;;;;;;;5.32;1.80;;;;;;;;;;4931123;28;93134;-84
2023/10/04 01:44:05;;;;;;;8.68;1.65;;;;;;;;;;4934012;28;93017;-84
2023/10/04 01:46:31;;;;;;;6.43;1.50;;;;;;;;;;4953631;28;94028;-84
2023/10/04 01:48:58;;;;;;;6.15;1.70;;;;;;;;;;4949525;28;92427;-84
2023/10/04 01:51:27;;;;;;;6.57;1.70;;;;;;;;;;4946667;28;94351;-83
2023/10/04 01:53:53;;;;;;;5.22;1.60;;;;;;;;;;4949247;28;92296;-83
2023/10/04 01:56:20;;;;;;;5.97;1.40;;;;;;;;;;4948174;28;93129;-83
2023/10/04 01:58:48;;;;;;;5.32;1.60;;;;;;;;;;4936642;28;95534;-84
2023/10/04 02:01:15;;;;;;;4.07;1.45;;;;;;;;;;4955237;28;95517;-83
2023/10/04 02:03:42;;;;;;;7.93;1.80;;;;;;;;;;4926327;28;92949;-82
2023/10/04 02:06:09;;;;;;;4.85;1.45;;;;;;;;;;4926099;28;92793;-82
2023/10/04 02:08:36;;;;;;;;;;;;;;;;;;4929289;28;95463;-82
2023/10/04 02:11:06;;;;;;;5.65;1.40;;;;;;;;;;4931100;28;106146;-82
2023/10/04 02:13:35;;;;;;;4.50;1.38;;;;;;;;;;4930479;28;93127;-82
2023/10/04 02:16:02;;;;;;;6.15;1.60;;;;;;;;;;4958045;28;92991;-82
2023/10/04 02:18:28;;;;;;;6.75;1.77;;;;;;;;;;4936108;28;92763;-83
2023/10/04 02:20:55;;;;;;;5.15;1.52;;;;;;;;;;4948667;28;94555;-82
2023/10/04 02:23:23;;;;;;;6.20;1.40;;;;;;;;;;4947398;28;94176;-84
2023/10/04 02:25:50;;;;;;;4.90;1.40;;;;;;;;;;4951115;28;95245;-82
2023/10/04 02:28:22;;;;;;;5.82;1.50;;;;;;;;;;4945621;28;93174;-82
2023/10/04 02:30:53;;;;;;;5.93;1.70;;;;;;;;;;4959399;28;92675;-83
2023/10/04 02:33:21;;;;;;;6.72;1.52;;;;;;;;;;4952317;28;94140;-82
2023/10/04 02:35:48;;;;;;;4.88;1.40;;;;;;;;;;4952728;28;92776;-82
2023/10/04 02:38:16;;;;;;;6.82;1.52;;;;;;;;;;4952568;28;92853;-82
2023/10/04 02:40:43;;;;;;;6.90;1.67;;;;;;;;;;4952370;28;94297;-83
2023/10/04 02:43:10;;;;;;;7.30;1.88;;;;;;;;;;4951780;28;92108;-83
2023/10/04 02:45:37;;;;;;;5.88;1.48;;;;;;;;;;4969521;28;95170;-83
2023/10/04 02:48:04;;;;;;;5.90;1.48;;;;;;;;;;4966637;28;95646;-83
2023/10/04 02:50:31;;;;;;;5.20;1.58;;;;;;;;;;4952257;28;95187;-83
2023/10/04 02:52:58;;;;;;;5.55;1.40;;;;;;;;;;4966465;28;96168;-82
2023/10/04 02:55:26;;;;;;;7.07;1.60;;;;;;;;;;4950378;28;92573;-82
2023/10/04 02:57:53;;;;;;;4.15;1.48;;;;;;;;;;4948029;28;95665;-83
2023/10/04 03:00:20;;;;;;;5.70;1.55;;;;;;;;;;4957968;28;96061;-83
2023/10/04 03:02:53;;;;;;;7.32;1.60;;;;;;;;;;4948452;28;100966;-83
2023/10/04 03:05:23;;;;;;;7.70;1.80;;;;;;;;;;4950882;28;92473;-83
2023/10/04 03:07:52;;;;;;;5.55;1.80;;;;;;;;;;4949574;28;93485;-82
2023/10/04 03:10:24;;;;;;;6.60;1.40;;;;;;;;;;4943787;28;92773;-83
2023/10/04 03:12:56;;;;;;;5.97;1.55;;;;;;;;;;4950704;28;95733;-83
2023/10/04 03:15:23;;;;;;;7.18;1.70;;;;;;;;;;4931712;28;94979;-83
2023/10/04 03:17:53;;;;;;;5.75;1.63;;;;;;;;;;4959459;28;95501;-82
2023/10/04 03:20:21;;;;;;;8.63;1.67;;;;;;;;;;4945802;28;94964;-83
2023/10/04 03:22:55;;;;;;;6.38;1.85;;;;;;;;;;4947319;28;92436;-83
2023/10/04 03:25:26;;;;;;;6.38;1.83;;;;;;;;;;4966869;28;95610;-82
2023/10/04 03:27:54;;;;;;;5.95;1.58;;;;;;;;;;4933438;28;96193;-82
2023/10/04 03:30:23;;;;;;;6.78;1.77;;;;;;;;;;4948350;28;92894;-82
2023/10/04 03:32:53;;;;;;;6.13;1.70;;;;;;;;;;4949020;28;96028;-83
2023/10/04 03:35:26;;;;;;;9.23;1.65;;;;;;;;;;4952162;28;95037;-83
2023/10/04 03:37:58;;;;;;;7.32;1.60;;;;;;;;;;4938065;28;92737;-83
2023/10/04 03:40:34;;;;;;;6.63;1.60;;;;;;;;;;4927180;28;98207;-83
2023/10/04 03:43:06;;;;;;;6.28;1.45;;;;;;;;;;4928450;28;92483;-83
2023/10/04 03:45:35;;;;;;;6.78;1.55;;;;;;;;;;4936479;28;94491;-84
2023/10/04 03:48:05;;;;;;;8.25;1.80;;;;;;;;;;4926617;28;92946;-81
2023/10/04 03:50:32;;;;;;;6.03;1.40;;;;;;;;;;4931712;28;92520;-81
2023/10/04 03:52:58;;;;;;;6.63;1.70;;;;;;;;;;4931861;28;93882;-82
2023/10/04 03:55:26;;;;;;;4.28;1.70;;;;;;;;;;4931900;28;92842;-83
2023/10/04 03:57:55;;;;;;;9.07;1.92;;;;;;;;;;4949212;28;92521;-84
2023/10/04 04:00:23;;;;;;;8.93;1.70;;;;;;;;;;4931307;28;93995;-83
2023/10/04 04:02:51;;;;;;;6.60;1.63;;;;;;;;;;4931919;28;92973;-83
2023/10/04 04:05:22;;;;;;;6.55;2.05;;;;;;;;;;4928781;28;94963;-83
2023/10/04 04:07:50;;;;;;;6.07;1.33;;;;;;;;;;4929444;28;96642;-83
2023/10/04 04:10:19;;;;;;;6.20;1.42;;;;;;;;;;4931703;28;92516;-82
2023/10/04 04:12:46;;;;;;;5.72;1.70;;;;;;;;;;4931645;28;93915;-83
2023/10/04 04:15:24;;;;;;;5.97;1.50;;;;;;;;;;4926344;28;95470;-83
2023/10/04 04:17:51;;;;;;;7.00;1.80;;;;;;;;;;4927947;28;96586;-82
2023/10/04 04:20:19;;;;;;;8.52;1.85;;;;;;;;;;4934333;28;93080;-83
2023/10/04 04:22:56;;;;;;;5.40;1.60;;;;;;;;;;4931297;28;92263;-83
2023/10/04 04:25:24;;;;;;;6.13;1.52;;;;;;;;;;4942838;28;94051;-83
2023/10/04 04:27:53;;;;;;;6.40;1.50;;;;;;;;;;4945369;28;95460;-83
2023/10/04 04:30:23;;;;;;;7.22;1.85;;;;;;;;;;4933256;28;95239;-83
2023/10/04 04:32:52;;;;;;;7.63;1.90;;;;;;;;;;4926703;28;98092;-84
2023/10/04 04:35:47;;;;;;;6.78;1.83;;;;;;;;;;4932272;28;93010;-84
2023/10/04 04:38:37;;;;;;;5.60;1.40;;;;;;;;;;4928836;28;92690;-83
2023/10/04 04:40:57;;;;;;;5.53;1.80;;;;;;;;;;4925810;28;94008;-83
2023/10/04 04:43:37;;;;;;;7.25;2.00;;;;;;;;;;4930005;28;92868;-83
2023/10/04 04:46:13;;;;;;;5.47;1.67;;;;;;;;;;4932972;28;95309;-83
2023/10/04 04:48:41;;;;;;;7.25;1.88;;;;;;;;;;4943401;28;94815;-83
2023/10/04 04:51:10;;;;;;;5.57;1.77;;;;;;;;;;4937367;28;93041;-83
2023/10/04 04:53:50;;;;;;;7.80;2.00;;;;;;;;;;4944975;28;94217;-82
2023/10/04 04:56:22;;;;;;;8.43;2.00;;;;;;;;;;4943592;28;98370;-83
2023/10/04 04:58:52;;;;;;;7.00;1.85;;;;;;;;;;4945003;28;92960;-83
2023/10/04 05:01:21;;;;;;;7.40;2.00;;;;;;;;;;4941505;28;95391;-83
2023/10/04 05:03:52;;;;;;;7.38;1.90;;;;;;;;;;4950841;28;95585;-83
2023/10/04 05:06:25;;;;;;;7.95;2.20;;;;;;;;;;4950375;28;94137;-83
2023/10/04 05:08:56;;;;;;;7.38;1.70;;;;;;;;;;4950118;28;93403;-83
2023/10/04 05:11:24;;;;;;;5.80;1.75;;;;;;;;;;4951041;28;92984;-83
2023/10/04 05:13:51;;;;;;;6.70;1.85;;;;;;;;;;4948836;28;92809;-83
2023/10/04 05:16:18;;;;;;;8.88;1.88;;;;;;;;;;4953234;28;93548;-83
2023/10/04 05:18:44;;;;;;;6.95;2.25;;;;;;;;;;4952787;28;92715;-83
2023/10/04 05:21:12;;;;;;;6.28;1.80;;;;;;;;;;4950246;28;95626;-83
2023/10/04 05:23:38;;;;;;;;;;;;;;;;;;4948791;28;94384;-83
2023/10/04 05:26:08;;;;;;;7.43;1.77;;;;;;;;;;4967803;28;93041;-83
2023/10/04 05:28:35;;;;;;;8.05;2.05;;;;;;;;;;4944250;28;94150;-83
2023/10/04 05:31:02;;;;;;;8.68;2.00;;;;;;;;;;4949106;28;93108;-83
2023/10/04 05:33:30;;;;;;;6.43;1.80;;;;;;;;;;4943090;28;92954;-82
2023/10/04 05:36:00;;;;;;;6.13;1.77;;;;;;;;;;4944469;28;100444;-84
2023/10/04 05:38:28;;;;;;;7.45;1.90;;;;;;;;;;4949856;28;92455;-83
2023/10/04 05:40:55;;;;;;;6.07;1.63;;;;;;;;;;4950302;28;92780;-84
2023/10/04 05:43:21;;;;;;;7.70;2.05;;;;;;;;;;4951103;28;93145;-84
2023/10/04 05:45:49;;;;;;;5.68;1.60;;;;;;;;;;4948082;28;95248;-83
2023/10/04 05:48:19;;;;;;;7.63;2.00;;;;;;;;;;4952541;28;95175;-84
2023/10/04 05:50:50;;;;;;;6.85;2.13;;;;;;;;;;4950182;28;92445;-84
2023/10/04 05:53:21;;;;;;;7.57;2.03;;;;;;;;;;4954558;28;92885;-84
2023/10/04 05:55:48;;;;;;;6.43;1.98;;;;;;;;;;4952352;28;93432;-84
2023/10/04 05:58:16;;;;;;;7.55;2.20;;;;;;;;;;4949452;28;92467;-84
2023/10/04 06:00:42;;;;;;;7.30;1.83;;;;;;;;;;4954675;28;99104;-85
2023/10/04 06:03:15;;;;;;;7.45;2.40;;;;;;;;;;4959981;28;92865;-84
2023/10/04 06:05:42;;;;;;;10.88;2.30;;;;;;;;;;4952872;28;94028;-84
2023/10/04 06:08:16;;;;;;;8.73;2.30;;;;;;;;;;4940952;28;92636;-83
2023/10/04 06:10:43;;;;;;;9.27;2.20;;;;;;;;;;4952060;28;95703;-83
2023/10/04 06:13:12;;;;;;;6.63;1.90;;;;;;;;;;4952749;28;95214;-84
2023/10/04 06:15:44;;;;;;;7.82;1.95;;;;;;;;;;4953330;28;93779;-84
2023/10/04 06:18:12;;;;;;;11.43;2.20;;;;;;;;;;4941691;28;92492;-82
2023/10/04 06:20:40;;;;;;;8.45;2.45;;;;;;;;;;4953747;28;93800;-82
2023/10/04 06:23:09;;;;;;;8.90;1.90;;;;;;;;;;4953095;28;93345;-83
2023/10/04 06:25:42;;;;;;;7.05;2.00;;;;;;;;;;4952432;28;92964;-83
2023/10/04 06:28:09;;;;;;;11.15;2.17;;;;;;;;;;4951195;28;92769;-83
2023/10/04 06:30:37;;;;;;;5.70;1.85;;;;;;;;;;4945226;28;93792;-82
2023/10/04 06:33:05;;;;;;;6.72;2.08;;;;;;;;;;4963189;28;92489;-83
2023/10/04 06:35:32;;;;;;;8.57;2.33;;;;;;;;;;4959274;28;94888;-82
2023/10/04 06:38:00;;;;;;;7.15;2.03;;;;;;;;;;4958949;28;92929;-82
2023/10/04 06:40:26;;;;;;;;;;;;;;;;;;4969681;28;92991;-83
2023/10/04 06:42:53;;;;;;;7.28;2.00;;;;;;;;;;4972038;28;110402;-83
2023/10/04 06:45:22;;;;;;;7.10;1.98;;;;;;;;;;4965949;28;92426;-83
2023/10/04 06:47:49;;;;;;;8.55;2.20;;;;;;;;;;4967726;28;93381;-83
2023/10/04 06:50:19;;;;;;;8.27;2.28;;;;;;;;;;4955910;28;93044;-82
2023/10/04 06:52:50;;;;;;;9.82;2.28;;;;;;;;;;4969519;28;91868;-84
2023/10/04 06:55:17;;;;;;;8.75;2.20;;;;;;;;;;4962791;28;93412;-82
2023/10/04 06:57:44;;;;;;;12.80;2.20;;;;;;;;;;4963518;28;92351;-82
2023/10/04 07:00:13;;;;;;;9.68;2.60;;;;;;;;;;4952751;28;95552;-84
2023/10/04 07:02:47;;;;;;;9.98;2.17;;;;;;;;;;4947659;28;93349;-87
2023/10/04 07:05:17;;;;;;;11.73;2.42;;;;;;;;;;4957388;28;92461;-83
2023/10/04 07:07:44;;;;;;;10.45;2.00;;;;;;;;;;4954839;28;95826;-84
2023/10/04 07:10:15;;;;;;;7.85;1.90;;;;;;;;;;4953222;28;93167;-84
2023/10/04 07:12:43;;;;;;;7.05;2.03;;;;;;;;;;4947744;28;92740;-83
2023/10/04 07:15:10;;;;;;;8.45;2.22;;;;;;;;;;4945511;28;92929;-82
2023/10/04 07:17:39;;;;;;;8.88;2.17;;;;;;;;;;4956514;28;92251;-81
2023/10/04 07:20:15;;;;;;;9.10;2.33;;;;;;;;;;4948770;28;93276;-82
2023/10/04 07:22:42;;;;;;;10.02;2.35;;;;;;;;;;4947495;28;97148;-82
2023/10/04 07:25:10;;;;;;;10.52;2.58;;;;;;;;;;4948523;28;94933;-83
2023/10/04 07:27:36;;;;;;;11.07;2.83;;;;;;;;;;4951487;28;95734;-83
2023/10/04 07:30:04;;;;;;;9.05;3.00;;;;;;;;;;4941126;28;93251;-82
2023/10/04 07:32:31;;;;;;;8.80;2.20;;;;;;;;;;4953692;28;92827;-82
2023/10/04 07:34:57;;;;;;;10.63;2.67;;;;;;;;;;4955384;28;94391;-83
2023/10/04 07:37:24;;;;;;;18.27;3.50;;;;;;;;;;4953899;28;93432;-83
2023/10/04 07:39:52;;;;;;;10.73;2.75;;;;;;;;;;4951768;28;92963;-82
2023/10/04 07:42:21;;;;;;;10.68;2.80;;;;;;;;;;4951215;28;92354;-83
2023/10/04 07:44:48;;;;;;;11.30;2.83;;;;;;;;;;4951399;28;93172;-83
2023/10/04 07:47:14;;;;;;;11.27;2.40;;;;;;;;;;4956196;28;92948;-83
2023/10/04 07:49:41;;;;;;;10.77;2.72;;;;;;;;;;4933539;28;96168;-83
2023/10/04 07:52:08;;;;;;;11.23;2.75;;;;;;;;;;4931189;28;93365;-82
2023/10/04 07:54:35;;;;;;;11.95;2.22;;;;;;;;;;4932281;28;93228;-83
2023/10/04 07:57:03;;;;;;;9.45;3.00;;;;;;;;;;4934772;28;93430;-83
2023/10/04 07:59:30;;;;;;;;;;;;;;;;;;4933850;28;92987;-83
2023/10/04 08:02:00;;;;;;;11.05;3.10;;;;;;;;;;4929987;28;93056;-82
2023/10/04 08:04:27;;;;;;;10.48;2.50;;;;;;;;;;4930957;28;92954;-83
2023/10/04 08:06:53;;;;;;;9.68;2.40;;;;;;;;;;4932034;28;93835;-83
2023/10/04 08:09:21;;;;;;;11.52;2.30;;;;;;;;;;4926860;28;96079;-83
2023/10/04 08:11:49;;;;;;;10.73;2.95;;;;;;;;;;4934621;28;92889;-81
2023/10/04 08:14:17;;;;;;;11.05;2.47;;;;;;;;;;4929609;28;95294;-83
2023/10/04 08:16:43;;;;;;;11.00;2.60;;;;;;;;;;4936823;28;94149;-84
2023/10/04 08:19:10;;;;;;;9.88;2.63;;;;;;;;;;4940453;28;92643;-83
2023/10/04 08:21:38;;;;;;;10.52;2.50;;;;;;;;;;4948297;28;93154;-83
2023/10/04 08:24:09;;;;;;;14.18;3.30;;;;;;;;;;4950252;28;93450;-83
2023/10/04 08:26:37;;;;;;;16.30;2.90;;;;;;;;;;4951548;28;93244;-83
2023/10/04 08:29:05;;;;;;;;;;;;;;;;;;4950690;28;93076;-84
2023/10/04 08:31:33;;;;;;;11.45;2.65;;;;;;;;;;4951510;28;108042;-83
2023/10/04 08:34:00;;;;;;;12.50;2.78;;;;;;;;;;4940092;28;92809;-82
2023/10/04 08:36:27;;;;;;;9.02;2.45;;;;;;;;;;4929803;28;96445;-83
2023/10/04 08:38:54;;;;;;;10.40;2.88;;;;;;;;;;4947117;28;94854;-82
2023/10/04 08:41:21;;;;;;;11.95;2.90;;;;;;;;;;4950272;28;95124;-82
2023/10/04 08:43:47;;;;;;;10.52;2.55;;;;;;;;;;4953057;28;95010;-82
2023/10/04 08:46:16;;;;;;;14.80;3.50;;;;;;;;;;4956377;28;97165;-83
2023/10/04 08:48:44;;;;;;;14.15;3.20;;;;;;;;;;4948131;28;93528;-81
2023/10/04 08:51:13;;;;;;;14.25;3.40;;;;;;;;;;4930381;28;92481;-82
2023/10/04 08:53:53;;;;;;;10.70;2.83;;;;;;;;;;4920627;28;92877;-84
2023/10/04 08:56:20;;;;;;;13.90;3.00;;;;;;;;;;4965275;28;99607;-82
2023/10/04 08:58:47;;;;;;;11.45;3.03;;;;;;;;;;4949591;28;93085;-82
2023/10/04 09:01:20;;;;;;;13.13;2.88;;;;;;;;;;4950898;28;93042;-82
2023/10/04 09:03:50;;;;;;;13.65;2.97;;;;;;;;;;4951064;28;95452;-82
2023/10/04 09:06:17;;;;;;;10.90;3.15;;;;;;;;;;4935119;28;99877;-83
2023/10/04 09:08:44;;;;;;;11.50;2.70;;;;;;;;;;4949259;28;93177;-82
2023/10/04 09:11:11;;;;;;;13.02;3.22;;;;;;;;;;4949855;28;92664;-82
2023/10/04 09:13:48;;;;;;;9.00;2.67;;;;;;;;;;4949864;28;95273;-82
2023/10/04 09:16:23;;;;;;;13.05;3.05;;;;;;;;;;4945038;28;97721;-82
2023/10/04 09:19:13;;;;;;;12.55;2.80;;;;;;;;;;4949242;28;92779;-83
2023/10/04 09:21:41;;;;;;;12.98;2.90;;;;;;;;;;4947452;28;94248;-82
2023/10/04 09:24:09;;;;;;;11.02;3.13;;;;;;;;;;4947606;28;93403;-82
2023/10/04 09:26:36;;;;;;;12.80;3.25;;;;;;;;;;4951633;28;92447;-82
2023/10/04 09:29:05;;;;;;;10.60;3.00;;;;;;;;;;4937175;28;95629;-82
2023/10/04 09:31:44;;;;;;;11.88;3.50;;;;;;;;;;4947208;28;93163;-82
2023/10/04 09:34:13;;;;;;;13.45;3.20;;;;;;;;;;4949387;28;95215;-82
2023/10/04 09:36:43;;;;;;;13.20;3.30;;;;;;;;;;4948925;28;93141;-82
2023/10/04 09:39:19;;;;;;;10.73;2.97;;;;;;;;;;4948268;28;93055;-82
2023/10/04 09:41:47;;;;;;;9.38;2.60;;;;;;;;;;4946828;28;92916;-82
2023/10/04 09:44:21;;;;;;;11.00;3.00;;;;;;;;;;4928191;28;100544;-82
2023/10/04 09:46:57;;;;;;;13.13;3.53;;;;;;;;;;4941715;28;92131;-82
2023/10/04 09:49:25;;;;;;;12.25;3.28;;;;;;;;;;4959967;28;92438;-82
2023/10/04 09:51:53;;;;;;;14.00;3.17;;;;;;;;;;4954223;28;92776;-82
2023/10/04 09:54:20;;;;;;;12.18;3.58;;;;;;;;;;4948897;28;95913;-82
2023/10/04 09:56:49;;;;;;;11.68;3.30;;;;;;;;;;4947869;28;93390;-82
2023/10/04 09:59:19;;;;;;;11.48;3.20;;;;;;;;;;4949146;28;93545;-82
2023/10/04 10:01:50;;;;;;;13.40;3.05;;;;;;;;;;4948680;28;92666;-82
2023/10/04 10:04:23;;;;;;;9.23;2.63;;;;;;;;;;4947236;28;97895;-82
2023/10/04 10:06:56;;;;;;;11.93;2.88;;;;;;;;;;4948994;28;92543;-82
2023/10/04 10:09:23;;;;;;;14.32;3.20;;;;;;;;;;4946531;28;92886;-82
2023/10/04 10:11:52;;;;;;;11.40;2.92;;;;;;;;;;4946541;28;92665;-81
2023/10/04 10:14:22;;;;;;;11.93;2.92;;;;;;;;;;4933246;28;92498;-81
2023/10/04 10:16:54;;;;;;;12.65;3.10;;;;;;;;;;4950036;28;93617;-81
2023/10/04 10:19:23;;;;;;;9.75;3.28;;;;;;;;;;4932987;28;94937;-82
2023/10/04 10:22:03;;;;;;;13.18;3.50;;;;;;;;;;4954519;28;96737;-82
2023/10/04 10:24:30;;;;;;;14.48;3.53;;;;;;;;;;4054798;28;10000647;-81
2023/10/04 10:27:07;;;;;;;11.00;3.30;;;;;;;;;;4948190;28;92443;-82
2023/10/04 10:29:36;;;;;;;11.38;3.00;;;;;;;;;;4929551;28;92872;-82
2023/10/04 10:32:06;;;;;;;13.32;3.65;;;;;;;;;;4947411;28;99258;-82
2023/10/04 10:34:33;;;;;;;12.05;3.30;;;;;;;;;;4953157;28;96016;-81
2023/10/04 10:37:19;;;;;;;11.43;3.10;;;;;;;;;;4948088;28;93900;-81
2023/10/04 10:39:47;;;;;;;11.23;2.83;;;;;;;;;;4962465;28;94706;-82
2023/10/04 10:42:15;;;;;;;12.43;3.40;;;;;;;;;;4934325;28;92781;-81
2023/10/04 10:44:42;;;;;;;11.85;3.00;;;;;;;;;;4946060;28;95859;-82
2023/10/04 10:47:14;;;;;;;12.90;3.55;;;;;;;;;;4950854;28;93053;-82
2023/10/04 10:49:41;;;;;;;11.48;3.30;;;;;;;;;;4953633;28;92877;-83
2023/10/04 10:52:09;;;;;;;12.82;3.30;;;;;;;;;;4952149;28;93493;-82
2023/10/04 10:54:36;;;;;;;12.35;3.20;;;;;;;;;;4954129;28;94600;-82
2023/10/04 10:57:05;;;;;;;12.10;3.40;;;;;;;;;;4954896;28;92712;-83
2023/10/04 10:59:33;;;;;;;10.95;3.00;;;;;;;;;;4951066;28;93258;-83
2023/10/04 11:01:59;;;;;;;10.98;3.00;;;;;;;;;;4951021;28;91779;-81
2023/10/04 11:04:26;;;;;;;10.63;3.10;;;;;;;;;;4952724;28;92812;-82
2023/10/04 11:06:53;;;;;;;13.82;3.58;;;;;;;;;;4949971;28;93560;-82
2023/10/04 11:09:20;;;;;;;9.80;2.78;;;;;;;;;;4947759;28;95075;-83
2023/10/04 11:12:09;;;;;;;12.70;3.20;;;;;;;;;;4944754;28;95112;-82
2023/10/04 11:14:40;;;;;;;12.68;3.28;;;;;;;;;;4949213;28;93288;-82
2023/10/04 11:17:06;;;;;;;14.38;3.67;;;;;;;;;;4954725;28;92543;-83
2023/10/04 11:19:34;;;;;;;12.75;3.35;;;;;;;;;;4954737;28;93727;-83
2023/10/04 11:22:03;;;;;;;11.15;3.13;;;;;;;;;;4949419;28;92620;-82
2023/10/04 11:24:34;;;;;;;10.55;3.08;;;;;;;;;;4961791;28;93201;-81
2023/10/04 11:27:01;;;;;;;8.85;2.60;;;;;;;;;;4951591;28;93866;-84
2023/10/04 11:29:29;;;;;;;7.93;2.20;;;;;;;;;;4948852;28;92437;-81
2023/10/04 11:31:56;;;;;;;7.45;2.35;;;;;;;;;;4946111;28;95073;-81
2023/10/04 11:34:23;;;;;;;10.73;2.70;;;;;;;;;;4947798;28;95690;-81
2023/10/04 11:36:50;;;;;;;7.97;2.22;;;;;;;;;;4965185;28;92723;-80
2023/10/04 11:39:19;;;;;;;8.55;2.58;;;;;;;;;;4954070;28;92493;-81
2023/10/04 11:41:47;;;;;;;9.13;2.45;;;;;;;;;;4950078;28;93069;-80
2023/10/04 11:44:13;;;;;;;8.55;2.63;;;;;;;;;;4940425;28;92822;-80
2023/10/04 11:46:57;;;;;;;8.45;2.38;;;;;;;;;;4962801;28;96128;-81
2023/10/04 11:49:23;;;;;;;7.70;2.45;;;;;;;;;;4963727;28;92542;-81
2023/10/04 11:51:50;;;;;;;7.85;2.40;;;;;;;;;;4947972;28;92906;-81
2023/10/04 11:54:18;;;;;;;9.80;2.25;;;;;;;;;;4948014;28;93044;-81
2023/10/04 11:56:45;;;;;;;7.45;2.50;;;;;;;;;;4949802;28;92814;-80
2023/10/04 11:59:15;;;;;;;10.35;2.58;;;;;;;;;;4943251;28;96703;-83
2023/10/04 12:01:44;;;;;;;9.10;2.53;;;;;;;;;;4949393;28;93180;-82
2023/10/04 12:04:14;;;;;;;7.13;2.10;;;;;;;;;;4955109;28;92832;-82
2023/10/04 12:06:42;;;;;;;7.03;2.35;;;;;;;;;;4952468;28;92640;-82
2023/10/04 12:09:08;;;;;;;8.15;2.10;;;;;;;;;;4954979;28;92902;-82
2023/10/04 12:11:38;;;;;;;8.32;2.30;;;;;;;;;;4966780;28;92725;-83
2023/10/04 12:14:05;;;;;;;;;;;;;;;;;;4950163;28;93321;-82
2023/10/04 12:16:33;;;;;;;8.68;2.55;;;;;;;;;;4956262;28;95706;-82
2023/10/04 12:19:00;;;;;;;8.45;2.15;;;;;;;;;;4956373;28;92520;-83
2023/10/04 12:21:27;;;;;;;7.30;2.13;;;;;;;;;;4949059;28;94059;-82
2023/10/04 12:23:54;;;;;;;9.07;2.38;;;;;;;;;;4949762;28;94921;-81
2023/10/04 12:26:22;;;;;;;8.13;2.00;;;;;;;;;;4949487;28;93777;-82
2023/10/04 12:28:50;;;;;;;7.05;2.13;;;;;;;;;;4945806;28;94575;-82
2023/10/04 12:31:16;;;;;;;9.25;2.53;;;;;;;;;;4960007;28;93314;-82
2023/10/04 12:33:43;;;;;;;8.98;2.30;;;;;;;;;;4935657;28;93886;-82
2023/10/04 12:36:10;;;;;;;6.95;2.22;;;;;;;;;;4934624;28;93142;-82
2023/10/04 12:38:37;;;;;;;6.70;2.28;;;;;;;;;;4941118;28;93024;-82
2023/10/04 12:41:03;;;;;;;8.85;2.40;;;;;;;;;;4933712;28;92805;-82
2023/10/04 12:43:30;;;;;;;8.90;2.35;;;;;;;;;;4931336;28;92430;-82
2023/10/04 12:45:57;;;;;;;6.63;2.17;;;;;;;;;;4949653;28;92845;-81
2023/10/04 12:48:24;;;;;;;7.13;2.13;;;;;;;;;;4952564;28;95231;-82
2023/10/04 12:50:51;;;;;;;6.85;2.45;;;;;;;;;;4955663;28;95241;-82
2023/10/04 12:53:18;;;;;;;;;;;;;;;;;;4954457;28;93102;-82
2023/10/04 12:55:47;;;;;;;6.90;2.08;;;;;;;;;;4956404;28;111107;-82
2023/10/04 12:58:14;;;;;;;6.18;1.92;;;;;;;;;;4950907;28;93096;-82
2023/10/04 13:00:41;;;;;;;7.18;2.17;;;;;;;;;;4948400;28;93373;-82
2023/10/04 13:03:08;;;;;;;5.43;1.95;;;;;;;;;;4944320;28;93283;-82
2023/10/04 13:05:38;;;;;;;6.35;2.22;;;;;;;;;;4951194;28;93770;-82
2023/10/04 13:08:07;;;;;;;8.55;2.33;;;;;;;;;;4952026;28;93506;-82
2023/10/04 13:10:36;;;;;;;8.02;1.80;;;;;;;;;;4950477;28;92972;-82
2023/10/04 13:13:03;;;;;;;7.95;2.47;;;;;;;;;;4949944;28;97379;-82
2023/10/04 13:15:32;;;;;;;8.65;2.50;;;;;;;;;;4948760;28;92643;-82
2023/10/04 13:17:58;;;;;;;7.35;2.35;;;;;;;;;;4963972;28;94674;-82
2023/10/04 13:20:25;;;;;;;8.40;2.50;;;;;;;;;;4949081;28;92470;-81
2023/10/04 13:22:55;;;;;;;6.65;1.92;;;;;;;;;;4946347;28;92582;-82
2023/10/04 13:25:23;;;;;;;6.90;2.10;;;;;;;;;;4949552;28;93398;-82
2023/10/04 13:27:50;;;;;;;7.90;2.15;;;;;;;;;;4952365;28;93638;-81
2023/10/04 13:30:17;;;;;;;5.32;1.80;;;;;;;;;;4948159;28;93491;-82
2023/10/04 13:32:47;;;;;;;6.78;2.00;;;;;;;;;;4949782;28;93174;-82
2023/10/04 13:35:16;;;;;;;6.80;2.13;;;;;;;;;;4936712;28;92506;-82
2023/10/04 13:37:47;;;;;;;7.97;2.03;;;;;;;;;;4948042;28;102715;-81
2023/10/04 13:40:19;;;;;;;6.40;2.20;;;;;;;;;;4947137;28;97472;-82
2023/10/04 13:42:46;;;;;;;7.88;1.75;;;;;;;;;;4949372;28;92454;-82
2023/10/04 13:45:13;;;;;;;9.05;2.38;;;;;;;;;;4949054;28;93942;-83
2023/10/04 13:47:43;;;;;;;;;;;;;;;;;;4954479;28;93722;-81
2023/10/04 13:50:10;;;;;;;6.78;1.98;;;;;;;;;;4950465;28;112214;-81
2023/10/04 13:52:38;;;;;;;6.47;1.80;;;;;;;;;;4948691;28;93108;-82
2023/10/04 13:55:05;;;;;;;7.10;1.90;;;;;;;;;;4949053;28;91755;-82
2023/10/04 13:57:32;;;;;;;6.57;1.95;;;;;;;;;;4949563;28;92393;-82
2023/10/04 13:59:59;;;;;;;7.28;2.15;;;;;;;;;;4948995;28;93004;-82
2023/10/04 14:02:26;;;;;;;6.32;1.90;;;;;;;;;;4947688;28;94958;-82
2023/10/04 14:04:56;;;;;;;6.85;2.00;;;;;;;;;;4949630;28;96400;-82
2023/10/04 14:07:22;;;;;;;6.65;2.00;;;;;;;;;;4955165;28;93174;-81
2023/10/04 14:09:50;;;;;;;5.50;1.90;;;;;;;;;;4955807;28;92446;-81
2023/10/04 14:12:20;;;;;;;5.75;2.00;;;;;;;;;;4955655;28;93300;-82
2023/10/04 14:14:50;;;;;;;6.88;1.80;;;;;;;;;;4960826;28;92398;-82
2023/10/04 14:17:19;;;;;;;4.68;1.35;;;;;;;;;;4959517;28;92962;-82
2023/10/04 14:19:47;;;;;;;5.30;1.60;;;;;;;;;;4961107;28;91820;-83
2023/10/04 14:22:14;;;;;;;7.35;1.90;;;;;;;;;;4963373;28;93045;-82
2023/10/04 14:24:42;;;;;;;5.68;1.80;;;;;;;;;;4964054;28;93055;-82
2023/10/04 14:27:09;;;;;;;5.68;1.80;;;;;;;;;;4960977;28;94812;-81
2023/10/04 14:29:35;;;;;;;4.65;1.55;;;;;;;;;;4964276;28;92753;-82
2023/10/04 14:32:03;;;;;;;6.18;1.50;;;;;;;;;;4970760;28;94327;-81
2023/10/04 14:34:30;;;;;;;6.13;1.90;;;;;;;;;;4968012;28;93151;-81
2023/10/04 14:36:57;;;;;;;5.63;1.70;;;;;;;;;;4978958;28;94589;-81
2023/10/04 14:39:23;;;;;;;5.50;1.60;;;;;;;;;;4977086;28;96170;-81
2023/10/04 14:41:50;;;;;;;5.22;1.60;;;;;;;;;;4957229;28;92982;-81
2023/10/04 14:44:17;;;;;;;6.45;1.70;;;;;;;;;;4952136;28;92944;-82
2023/10/04 14:46:43;;;;;;;6.50;1.80;;;;;;;;;;4957873;28;93494;-82
2023/10/04 14:49:10;;;;;;;6.15;1.60;;;;;;;;;;4949058;28;93408;-81